Time;durP1;ratioP1;P1;durP2;ratioP2;P2;SDS_P1;SDS_P2;PMS_P1;PMS_P2;Temp;Humidity;BMP_temperature;BMP_pressure;BME280_temperature;BME280_humidity;BME280_pressure;Samples;Min_cycle;Max_cycle;Signal;HPM_P1;HPM_P2
2023/03/31 00:04:30;;;;;;;22.30;16.90;;;;;;;8.32;81.92;98036.34;220885;1281;22524;-72
2023/03/31 00:10:03;;;;;;;;;;;;;;;;;;;;;
2023/03/31 00:15:22;;;;;;;22.50;17.10;;;;;;;8.02;82.31;98029.38;221105;1281;25372;-72
2023/03/31 00:20:54;;;;;;;19.50;16.90;;;;;;;7.93;82.45;98030.74;221332;1280;22883;-72
2023/03/31 00:26:05;;;;;;;19.80;16.00;;;;;;;7.83;82.43;98031.64;221149;1281;25394;-73
2023/03/31 00:31:11;;;;;;;18.60;15.80;;;;;;;7.74;83.27;98029.08;221172;1278;22627;-73
2023/03/31 00:36:20;;;;;;;19.40;16.40;;;;;;;7.72;83.40;98032.27;221136;1280;24330;-73
2023/03/31 00:42:47;;;;;;;19.90;15.80;;;;;;;7.72;83.40;98034.57;221187;1281;23065;-72
2023/03/31 00:49:12;;;;;;;;;;;;;;;;;;;;;
2023/03/31 00:55:09;;;;;;;19.60;15.00;;;;;;;7.71;83.18;98028.91;221036;1281;26402;-73
2023/03/31 01:00:58;;;;;;;19.50;15.80;;;;;;;7.74;83.44;98021.71;221045;1281;24282;-73
2023/03/31 01:06:06;;;;;;;19.00;15.50;;;;;;;7.74;83.66;98015.61;221009;1278;24338;-72
2023/03/31 01:11:15;;;;;;;19.50;16.00;;;;;;;7.75;83.70;98012.46;220927;1280;24233;-74
2023/03/31 01:16:30;;;;;;;21.20;16.10;;;;;;;7.73;83.36;98010.10;221194;1281;24240;-71
2023/03/31 01:22:39;;;;;;;;;;;;;;;;;;;;;
2023/03/31 01:29:20;;;;;;;;;;;;;;;;;;;;;
2023/03/31 01:43:03;;;;;;;18.60;14.60;;;;;;;7.61;83.44;98015.53;219897;1280;22541;-72
2023/03/31 01:50:24;;;;;;;;;;;;;;;;;;;;;
2023/03/31 01:56:27;;;;;;;17.00;13.80;;;;;;;7.33;83.68;98011.42;220619;1273;24369;-72
2023/03/31 02:02:42;;;;;;;16.90;12.60;;;;;;;7.26;83.70;98013.24;221313;1280;22566;-73
2023/03/31 02:08:48;;;;;;;17.10;13.00;;;;;;;7.28;83.79;98010.87;220956;1280;22743;-73
2023/03/31 02:14:17;;;;;;;14.10;12.50;;;;;;;7.33;84.10;98006.56;221075;1280;22525;-72
2023/03/31 02:19:47;;;;;;;13.50;11.30;;;;;;;7.40;84.03;98000.81;221499;1280;25285;-72
2023/03/31 02:24:59;;;;;;;15.10;12.30;;;;;;;7.47;83.87;98004.39;221211;1280;26510;-71
2023/03/31 02:32:05;;;;;;;;;;;;;;;;;;;;;
2023/03/31 02:44:43;;;;;;;12.60;10.10;;;;;;;7.53;83.49;97987.36;219953;1285;25316;-72
2023/03/31 02:50:49;;;;;;;11.90;10.50;;;;;;;7.44;83.62;97989.13;220717;1277;22540;-73
2023/03/31 03:04:44;;;;;;;;;;;;;;;;;;;;;
2023/03/31 03:11:36;;;;;;;13.30;10.90;;;;;;;7.33;83.67;97977.52;221287;1280;25291;-72
2023/03/31 03:17:42;;;;;;;12.20;9.90;;;;;;;7.33;83.83;97974.52;220916;1280;22595;-72
2023/03/31 03:24:28;;;;;;;12.70;10.40;;;;;;;7.32;83.67;97968.44;220891;1280;25415;-72
2023/03/31 03:30:30;;;;;;;13.50;11.20;;;;;;;7.32;83.94;97969.33;221316;1280;22569;-72
2023/03/31 03:37:24;;;;;;;16.00;12.40;;;;;;;7.30;83.76;97969.25;220453;1285;22560;-74
2023/03/31 03:43:18;;;;;;;16.00;12.20;;;;;;;7.27;84.04;97965.23;220526;1285;22657;-72
2023/03/31 03:49:27;;;;;;;;;;;;;;;;;;;;;
2023/03/31 03:55:44;;;;;;;;;;;;;;;;;;;;;
2023/03/31 04:01:01;;;;;;;23.40;17.00;;;;;;;7.10;83.40;97949.70;221343;1280;25069;-72
2023/03/31 04:07:55;;;;;;;21.20;16.80;;;;;;;6.90;83.52;97946.00;220561;1284;22526;-72
2023/03/31 04:13:58;;;;;;;21.90;17.80;;;;;;;6.68;83.38;97944.38;220370;1284;22655;-72
2023/03/31 04:20:12;;;;;;;22.90;17.30;;;;;;;6.51;84.16;97944.05;220752;1284;24213;-72
2023/03/31 04:25:22;;;;;;;21.60;16.40;;;;;;;6.39;84.25;97940.63;220714;1284;23928;-73
2023/03/31 04:30:55;;;;;;;;;;;;;;;;;;;;;
2023/03/31 04:37:12;;;;;;;;;;;;;;;;;;;;;
2023/03/31 04:42:35;;;;;;;20.50;16.40;;;;;;;6.06;84.80;97925.69;220788;1284;22587;-71
2023/03/31 04:47:43;;;;;;;25.30;19.80;;;;;;;5.99;84.66;97922.08;220894;1284;22576;-72
2023/03/31 04:53:08;;;;;;;26.30;20.80;;;;;;;5.97;84.96;97916.76;220935;1280;23183;-74
2023/03/31 04:58:40;;;;;;;27.60;21.30;;;;;;;5.95;85.10;97912.34;220727;1281;25625;-72
2023/03/31 05:04:09;;;;;;;24.60;19.60;;;;;;;5.96;85.44;97905.46;220701;1281;24247;-73
2023/03/31 05:10:18;;;;;;;24.10;18.70;;;;;;;5.99;85.63;97906.91;220879;1278;24484;-73
2023/03/31 05:16:11;;;;;;;28.90;21.10;;;;;;;6.06;85.61;97905.80;220824;1280;25392;-72
2023/03/31 05:21:38;;;;;;;26.70;21.00;;;;;;;6.13;85.68;97900.88;221341;1280;25397;-71
2023/03/31 05:26:56;;;;;;;24.20;18.30;;;;;;;6.24;85.88;97896.23;221333;1280;22541;-73
2023/03/31 05:32:17;;;;;;;25.40;19.90;;;;;;;6.35;85.90;97891.87;221329;1278;24711;-74
2023/03/31 05:37:38;;;;;;;24.60;17.90;;;;;;;6.47;85.88;97885.20;221369;1273;22539;-71
2023/03/31 05:42:41;;;;;;;20.60;18.00;;;;;;;6.60;86.12;97888.40;221547;1280;22540;-72
2023/03/31 05:48:06;;;;;;;;;;;;;;;;;;;;;
2023/03/31 05:53:53;;;;;;;21.00;16.00;;;;;;;6.96;86.05;97884.67;221589;1280;22517;-74
2023/03/31 05:58:59;;;;;;;21.90;16.70;;;;;;;7.17;86.17;97886.13;221663;1272;22547;-72
2023/03/31 06:04:32;;;;;;;;;;;;;;;;;;;;;
2023/03/31 06:10:13;;;;;;;41.20;13.30;;;;;;;7.96;86.31;97884.29;221861;1262;25415;-71
2023/03/31 06:15:40;;;;;;;29.00;10.90;;;;;;;8.51;85.99;97878.55;221632;1266;138490;-70
2023/03/31 06:21:25;;;;;;;27.60;10.90;;;;;;;8.90;85.00;97868.83;221777;1262;138813;-71
2023/03/31 06:26:43;;;;;;;84.80;14.20;;;;;;;9.07;83.73;97869.38;221540;1275;138876;-71
2023/03/31 06:31:54;;;;;;;41.70;9.30;;;;;;;9.22;83.68;97868.14;221366;1262;139585;-71
2023/03/31 06:37:40;;;;;;;;;;;;;;;;;;;;;
2023/03/31 06:42:56;;;;;;;16.70;7.30;;;;;;;9.58;82.87;97857.20;221287;1273;139608;-72
2023/03/31 06:48:03;;;;;;;16.20;7.90;;;;;;;9.78;82.60;97855.14;221354;1266;139771;-76
2023/03/31 06:53:07;;;;;;;20.50;6.10;;;;;;;9.96;82.00;97849.27;221545;1274;138767;-72
2023/03/31 06:58:11;;;;;;;14.40;5.40;;;;;;;10.13;82.05;97850.40;221359;1276;25282;-71
2023/03/31 07:03:17;;;;;;;102.10;16.40;;;;;;;10.30;81.43;97854.10;221239;1259;138892;-72
2023/03/31 07:08:35;;;;;;;754.70;83.30;;;;;;;10.46;80.84;97852.86;221367;1272;139188;-73
2023/03/31 07:14:11;;;;;;;351.40;44.80;;;;;;;10.67;80.97;97852.60;221589;1273;139440;-77
2023/03/31 07:19:24;;;;;;;19.30;5.90;;;;;;;10.93;80.23;97845.25;221467;1273;139527;-76
2023/03/31 07:24:26;;;;;;;10.60;5.20;;;;;;;11.18;79.83;97845.82;221387;1272;139710;-73
2023/03/31 07:29:29;;;;;;;261.30;35.30;;;;;;;11.55;79.66;97837.06;221332;1273;139469;-74
2023/03/31 07:34:47;;;;;;;887.20;129.90;;;;;;;11.94;78.64;97833.83;221504;1273;25415;-73
2023/03/31 07:40:03;;;;;;;232.00;29.80;;;;;;;12.20;77.62;97830.36;221587;1269;22639;-72
2023/03/31 07:45:10;;;;;;;58.40;11.50;;;;;;;12.39;77.26;97827.45;221277;1272;139437;-73
2023/03/31 07:50:13;;;;;;;12.40;5.30;;;;;;;12.52;76.47;97829.88;221463;1273;139188;-72
2023/03/31 07:55:20;;;;;;;600.30;69.10;;;;;;;12.65;75.70;97822.04;221617;1273;139004;-73
2023/03/31 08:00:33;;;;;;;143.50;21.60;;;;;;;12.83;75.57;97812.25;221212;1274;139371;-72
2023/03/31 08:05:36;;;;;;;19.80;5.60;;;;;;;13.06;75.06;97808.16;221285;1281;139351;-73
2023/03/31 08:10:49;;;;;;;12.20;4.70;;;;;;;13.30;74.75;97798.38;221230;1276;23916;-73
2023/03/31 08:16:16;;;;;;;21.10;5.20;;;;;;;13.44;73.70;97787.77;221632;1278;22615;-73
2023/03/31 08:21:31;;;;;;;35.30;5.90;;;;;;;13.59;73.54;97777.77;221291;1281;139508;-73
2023/03/31 08:26:46;;;;;;;23.80;12.80;;;;;;;13.69;72.72;97771.93;221306;1265;139217;-72
2023/03/31 08:31:49;;;;;;;88.30;10.60;;;;;;;13.61;72.35;97757.70;221240;1280;139919;-72
2023/03/31 08:36:52;;;;;;;55.60;15.70;;;;;;;13.63;72.96;97756.25;221742;1279;139129;-71
2023/03/31 08:42:01;;;;;;;78.10;10.70;;;;;;;13.68;72.60;97738.66;221506;1278;139199;-70
2023/03/31 08:47:09;;;;;;;54.10;9.60;;;;;;;13.73;72.47;97728.60;221375;1279;139276;-72
2023/03/31 08:52:17;;;;;;;11.40;5.00;;;;;;;13.77;72.13;97726.94;221486;1279;22951;-73
2023/03/31 08:57:31;;;;;;;;;;;;;;;13.91;72.25;97719.71;221569;1280;138854;-75
2023/03/31 09:03:01;;;;;;;58.30;18.50;;;;;;;14.07;71.99;97716.89;221371;1273;125287;-74
2023/03/31 09:08:37;;;;;;;26.90;6.00;;;;;;;14.24;71.46;97702.52;221564;1274;140353;-73
2023/03/31 09:14:01;;;;;;;14.10;4.80;;;;;;;14.50;71.58;97690.63;221443;1280;139002;-74
2023/03/31 09:19:18;;;;;;;6.70;3.40;;;;;;;14.78;71.30;97689.66;221588;1280;139389;-72
2023/03/31 09:24:43;;;;;;;13.80;7.30;;;;;;;14.83;70.49;97679.80;221754;1279;138972;-74
2023/03/31 09:29:55;;;;;;;6.00;3.60;;;;;;;14.85;70.00;97679.82;221414;1275;139148;-72
2023/03/31 09:35:13;;;;;;;7.30;3.30;;;;;;;14.91;69.63;97681.77;221391;1275;138936;-74
2023/03/31 09:40:27;;;;;;;5.30;3.70;;;;;;;14.93;68.37;97686.55;221372;1273;25265;-72
2023/03/31 09:45:32;;;;;;;14.90;4.40;;;;;;;14.98;68.81;97674.77;222598;1270;137735;-70
2023/03/31 09:51:07;;;;;;;9.10;4.10;;;;;;;15.19;69.11;97667.61;221540;1273;138151;-71
2023/03/31 09:56:10;;;;;;;39.60;6.60;;;;;;;15.62;68.89;97650.05;221291;1273;138428;-70
2023/03/31 10:01:14;;;;;;;68.90;7.30;;;;;;;16.00;68.91;97651.02;221285;1280;138465;-70
2023/03/31 10:06:17;;;;;;;26.10;6.50;;;;;;;16.05;67.20;97642.98;221251;1277;138350;-72
2023/03/31 10:11:20;;;;;;;17.90;4.70;;;;;;;16.06;67.41;97634.51;221448;1280;139016;-72
2023/03/31 10:16:28;;;;;;;17.60;4.90;;;;;;;15.92;66.41;97633.31;221546;1277;22709;-70
2023/03/31 10:21:37;;;;;;;11.50;4.50;;;;;;;15.75;66.59;97614.65;220985;1260;390285;-76
2023/03/31 10:26:45;;;;;;;7.20;4.40;;;;;;;15.64;67.09;97615.89;221565;1277;138117;-76
2023/03/31 10:31:48;;;;;;;8.30;4.50;;;;;;;15.60;66.69;97611.70;221444;1274;138210;-76
2023/03/31 10:37:20;;;;;;;6.50;3.70;;;;;;;15.55;67.14;97605.20;221116;1276;138096;-76
2023/03/31 10:43:02;;;;;;;7.90;4.10;;;;;;;15.58;66.56;97600.82;221434;1280;138585;-76
2023/03/31 10:48:49;;;;;;;4.80;3.40;;;;;;;15.70;66.55;97595.52;222230;1280;138181;-76
2023/03/31 10:54:09;;;;;;;4.30;2.90;;;;;;;15.92;65.92;97591.05;221549;1273;138131;-74
2023/03/31 11:00:00;;;;;;;;;;;;;;;;;;;;;
2023/03/31 11:05:36;;;;;;;5.60;3.30;;;;;;;15.77;64.77;97588.50;221506;1280;138341;-73
2023/03/31 11:10:46;;;;;;;6.30;3.40;;;;;;;15.75;65.30;97580.06;221694;1273;25410;-73
2023/03/31 11:16:35;;;;;;;6.10;3.10;;;;;;;15.77;65.39;97573.90;221286;1280;138205;-74
2023/03/31 11:22:18;;;;;;;5.90;3.80;;;;;;;15.60;65.16;97559.67;221069;1269;138074;-73
2023/03/31 11:27:59;;;;;;;5.70;3.10;;;;;;;15.44;65.27;97550.24;221272;1280;137998;-74
2023/03/31 11:34:10;;;;;;;4.10;3.20;;;;;;;15.36;65.88;97536.05;220800;1283;138649;-72
2023/03/31 11:39:34;;;;;;;5.00;3.00;;;;;;;15.47;66.18;97522.17;221377;1282;137968;-72
2023/03/31 11:44:53;;;;;;;10.50;4.10;;;;;;;15.68;66.32;97508.35;221471;1276;138250;-73
2023/03/31 11:50:41;;;;;;;;;;;;;;;;;;;;;
2023/03/31 11:56:55;;;;;;;;;;;;;;;;;;;;;
2023/03/31 12:03:26;;;;;;;7.70;3.10;;;;;;;15.49;65.59;97473.42;221682;1281;139712;-74
2023/03/31 12:09:35;;;;;;;4.60;1.60;;;;;;;15.54;65.28;97466.89;223319;1276;138670;-73
2023/03/31 12:15:20;;;;;;;8.00;2.40;;;;;;;15.79;64.95;97456.53;221454;1273;138183;-74
2023/03/31 12:20:37;;;;;;;8.40;1.80;;;;;;;16.14;63.83;97441.18;221689;1278;137943;-75
2023/03/31 12:26:31;;;;;;;;;;;;;;;;;;;;;
2023/03/31 12:31:42;;;;;;;12.60;1.60;;;;;;;16.96;59.47;97423.86;221952;1270;138478;-74
2023/03/31 12:37:08;;;;;;;4.10;1.10;;;;;;;16.92;58.23;97419.48;221826;1279;138382;-75
2023/03/31 12:42:53;;;;;;;7.90;1.50;;;;;;;16.74;58.53;97420.54;221861;1279;138221;-74
2023/03/31 12:48:48;;;;;;;;;;;;;;;;;;;;;
2023/03/31 12:54:48;;;;;;;4.10;1.30;;;;;;;16.46;59.10;97395.52;222127;1274;138601;-75
2023/03/31 13:00:38;;;;;;;7.40;1.90;;;;;;;16.30;59.20;97400.39;222212;1259;138750;-74
2023/03/31 13:07:01;;;;;;;;;;;;;;;;;;;;;
2023/03/31 13:12:31;;;;;;;6.60;1.50;;;;;;;15.91;60.22;97394.39;221881;1273;138103;-74
2023/03/31 13:17:59;;;;;;;4.50;1.30;;;;;;;15.78;61.32;97393.84;221596;1280;138150;-75
2023/03/31 13:23:18;;;;;;;3.30;1.60;;;;;;;15.50;61.82;97388.30;221337;1264;138139;-75
2023/03/31 13:28:41;;;;;;;6.60;1.80;;;;;;;15.18;63.20;97379.77;221315;1280;24305;-75
2023/03/31 13:34:03;;;;;;;5.00;1.90;;;;;;;14.90;63.92;97371.19;221418;1273;138181;-77
2023/03/31 13:40:05;;;;;;;;;;;;;;;;;;;;;
2023/03/31 13:46:22;;;;;;;6.60;2.70;;;;;;;14.40;66.21;97356.88;222297;1272;138274;-75
2023/03/31 13:52:01;;;;;;;9.00;4.30;;;;;;;14.15;67.24;97345.34;222421;1272;138973;-73
2023/03/31 13:57:51;;;;;;;7.60;3.90;;;;;;;13.91;68.16;97335.23;222430;1273;138698;-76
2023/03/31 14:03:50;;;;;;;8.40;3.90;;;;;;;13.69;68.94;97329.30;222649;1274;25352;-74
2023/03/31 14:09:11;;;;;;;10.70;4.20;;;;;;;13.43;69.70;97321.22;221351;1280;22527;-73
2023/03/31 14:14:18;;;;;;;8.20;4.60;;;;;;;13.30;70.81;97313.59;221533;1276;23106;-73
2023/03/31 14:19:59;;;;;;;11.70;3.90;;;;;;;13.25;71.56;97306.92;221096;1280;23316;-72
2023/03/31 14:26:22;;;;;;;10.70;4.60;;;;;;;13.13;71.98;97295.94;221983;1280;22634;-74
2023/03/31 14:31:38;;;;;;;10.40;5.40;;;;;;;12.98;72.44;97284.55;222088;1276;22662;-73
2023/03/31 14:37:16;;;;;;;12.50;5.50;;;;;;;12.81;72.57;97273.07;221192;1280;25313;-74
2023/03/31 14:42:56;;;;;;;12.40;6.00;;;;;;;12.72;73.16;97247.30;222254;1280;24304;-72
2023/03/31 14:48:15;;;;;;;11.90;6.40;;;;;;;12.69;73.68;97250.83;221365;1280;24317;-74
2023/03/31 14:53:36;;;;;;;10.40;5.80;;;;;;;12.60;73.81;97241.55;221075;1274;24262;-74
2023/03/31 14:58:48;;;;;;;8.60;5.40;;;;;;;12.51;73.94;97241.48;222195;1278;23945;-74
2023/03/31 15:04:45;;;;;;;12.60;6.00;;;;;;;12.44;74.24;97228.02;221954;1280;25351;-74
2023/03/31 15:09:55;;;;;;;12.70;6.70;;;;;;;12.53;74.57;97208.04;221205;1275;23003;-74
2023/03/31 15:15:03;;;;;;;13.60;7.10;;;;;;;12.68;74.79;97196.42;221503;1277;22529;-73
2023/03/31 15:20:34;;;;;;;14.90;9.20;;;;;;;12.95;74.66;97188.67;221190;1280;25432;-74
2023/03/31 15:25:53;;;;;;;10.50;6.90;;;;;;;13.36;74.72;97176.30;222146;1273;25250;-74
2023/03/31 15:30:57;;;;;;;12.70;7.10;;;;;;;13.65;74.05;97159.17;221304;1278;25393;-74
2023/03/31 15:36:24;;;;;;;11.50;6.60;;;;;;;13.76;73.39;97153.41;222110;1280;22551;-74
2023/03/31 15:41:32;;;;;;;8.60;5.80;;;;;;;13.77;72.92;97150.67;222127;1280;24267;-73
2023/03/31 15:47:23;;;;;;;8.10;5.00;;;;;;;13.68;72.23;97148.65;221260;1279;25307;-73
2023/03/31 15:52:34;;;;;;;7.40;3.90;;;;;;;13.50;71.88;97139.89;221066;1280;24247;-73
2023/03/31 15:57:46;;;;;;;9.90;4.20;;;;;;;13.32;71.62;97135.93;221180;1280;25307;-73
2023/03/31 16:03:04;;;;;;;6.20;3.20;;;;;;;13.15;71.71;97127.64;221390;1280;25288;-74
2023/03/31 16:08:40;;;;;;;8.60;4.00;;;;;;;13.00;71.63;97121.59;222108;1280;25247;-74
2023/03/31 16:14:21;;;;;;;8.20;3.80;;;;;;;12.85;71.78;97111.30;222329;1280;25395;-74
2023/03/31 16:19:38;;;;;;;7.90;5.30;;;;;;;12.76;71.95;97107.82;221933;1265;22481;-73
2023/03/31 16:24:45;;;;;;;7.00;3.50;;;;;;;12.68;72.07;97107.80;221982;1280;22678;-74
2023/03/31 16:30:08;;;;;;;5.90;4.10;;;;;;;12.62;71.91;97103.59;222049;1280;22686;-74
2023/03/31 16:35:18;;;;;;;10.30;4.50;;;;;;;12.54;72.04;97096.84;221016;1280;24278;-74
2023/03/31 16:40:50;;;;;;;8.50;4.50;;;;;;;12.48;72.16;97091.71;221975;1280;22540;-74
2023/03/31 16:46:02;;;;;;;8.30;4.90;;;;;;;12.43;72.34;97084.27;222120;1280;25444;-75
2023/03/31 16:51:07;;;;;;;10.10;5.10;;;;;;;12.38;72.39;97080.23;221110;1280;22590;-72
2023/03/31 16:56:11;;;;;;;10.00;6.70;;;;;;;12.34;72.58;97084.82;221174;1280;23918;-73
2023/03/31 17:01:19;;;;;;;10.70;6.40;;;;;;;12.32;72.71;97084.32;221431;1279;25359;-73
2023/03/31 17:06:46;;;;;;;12.80;7.80;;;;;;;12.28;72.81;97090.94;221390;1263;22530;-73
2023/03/31 17:12:00;;;;;;;17.20;9.90;;;;;;;12.23;72.98;97101.77;222378;1279;24222;-73
2023/03/31 17:17:06;;;;;;;9.90;5.10;;;;;;;12.13;73.40;97125.95;222179;1279;22527;-73
2023/03/31 17:22:14;;;;;;;3.80;2.30;;;;;;;11.84;72.55;97102.80;221470;1275;25291;-74
2023/03/31 17:28:03;;;;;;;;;;;;;;;;;;;;;
2023/03/31 17:34:17;;;;;;;3.80;2.10;;;;;;;10.78;73.73;97091.39;222305;1279;25370;-74
2023/03/31 17:40:17;;;;;;;5.50;2.40;;;;;;;10.43;74.77;97060.80;222369;1279;22565;-73
2023/03/31 17:46:58;;;;;;;;;;;;;;;;;;;;;
2023/03/31 17:53:32;;;;;;;;;;;;;;;;;;;;;
2023/03/31 17:59:25;;;;;;;;;;;;;;;;;;;;;
2023/03/31 18:04:53;;;;;;;4.80;3.00;;;;;;;9.73;76.36;97068.03;222377;1279;22653;-73
2023/03/31 18:10:21;;;;;;;5.70;3.10;;;;;;;9.62;76.86;97064.63;221323;1279;22537;-74
2023/03/31 18:16:42;;;;;;;;;;;;;;;;;;;;;
2023/03/31 18:22:36;;;;;;;3.90;2.70;;;;;;;9.33;77.22;97052.91;222410;1278;22683;-74
2023/03/31 18:28:54;;;;;;;;;;;;;;;;;;;;;
2023/03/31 18:35:45;;;;;;;90.50;56.00;;;;;;;8.96;78.12;97042.33;221275;1286;25381;-75
2023/03/31 18:42:24;;;;;;;;;;;;;;;;;;;;;
2023/03/31 18:48:34;;;;;;;31.70;18.20;;;;;;;8.74;78.87;97037.92;221032;1286;22544;-74
2023/03/31 18:55:27;;;;;;;;;;;;;;;;;;;;;
2023/03/31 19:01:54;;;;;;;40.20;26.30;;;;;;;8.74;79.25;97040.08;221397;1285;22529;-74
2023/03/31 19:08:09;;;;;;;;;;;;;;;;;;;;;
2023/03/31 19:14:55;;;;;;;38.50;26.40;;;;;;;8.93;79.66;97038.59;221897;1285;22567;-73
2023/03/31 19:28:26;;;;;;;25.70;17.40;;;;;;;8.94;79.82;97023.31;222186;1279;22926;-74
2023/03/31 19:35:10;;;;;;;23.20;15.80;;;;;;;8.99;79.67;97013.49;221981;1279;22535;-74
2023/03/31 19:41:19;;;;;;;;;;;;;;;;;;;;;
2023/03/31 19:47:45;;;;;;;;;;;;;;;;;;;;;
2023/03/31 19:53:30;;;;;;;39.00;24.00;;;;;;;9.05;79.97;97012.45;221307;1286;22544;-73
2023/03/31 19:59:32;;;;;;;28.20;18.30;;;;;;;9.09;80.20;97010.04;220592;1290;22676;-74
2023/03/31 20:05:50;;;;;;;18.30;13.20;;;;;;;9.18;80.79;97019.98;220812;1289;24428;-73
2023/03/31 20:11:44;;;;;;;;;;;;;;;;;;;;;
2023/03/31 20:17:21;;;;;;;14.60;9.90;;;;;;;9.39;80.28;97022.90;221788;1281;22532;-73
2023/03/31 20:23:52;;;;;;;;;;;;;;;;;;;;;
2023/03/31 20:30:38;;;;;;;8.20;5.40;;;;;;;9.41;79.27;97053.95;222042;1279;22752;-73
2023/03/31 20:37:04;;;;;;;;;;;;;;;;;;;;;
2023/03/31 20:42:44;;;;;;;3.50;2.60;;;;;;;9.32;77.72;97062.91;222220;1279;23007;-73
2023/03/31 20:49:31;;;;;;;3.50;1.80;;;;;;;9.32;77.35;97059.30;222347;1279;24372;-73
2023/03/31 20:56:04;;;;;;;;;;;;;;;;;;;;;
2023/03/31 21:01:36;;;;;;;3.10;1.70;;;;;;;9.38;76.43;97071.16;222313;1279;23720;-73
2023/03/31 21:07:04;;;;;;;2.30;1.30;;;;;;;9.40;75.98;97074.59;221383;1278;22578;-74
2023/03/31 21:13:17;;;;;;;2.40;1.50;;;;;;;9.34;76.10;97073.82;222244;1279;25356;-73
2023/03/31 21:18:36;;;;;;;;;;;;;;;;;;;;;
2023/03/31 21:23:52;;;;;;;1.50;1.10;;;;;;;9.23;75.87;97074.48;221500;1279;22738;-73
2023/03/31 21:30:50;;;;;;;1.90;1.20;;;;;;;9.15;75.68;97069.70;222410;1279;22526;-73
2023/03/31 21:36:45;;;;;;;2.10;1.20;;;;;;;9.07;75.87;97075.79;222318;1279;23367;-74
2023/03/31 21:43:00;;;;;;;;;;;;;;;;;;;;;
2023/03/31 21:49:43;;;;;;;1.70;1.20;;;;;;;8.84;75.79;97081.25;222343;1279;24242;-72
2023/03/31 21:55:53;;;;;;;;;;;;;;;;;;;;;
2023/03/31 22:02:34;;;;;;;;;;;;;;;;;;;;;
2023/03/31 22:08:30;;;;;;;;;;;;;;;;;;;;;
2023/03/31 22:15:15;;;;;;;3.10;1.40;;;;;;;8.31;75.97;97099.05;222100;1279;22540;-73
2023/03/31 22:22:21;;;;;;;2.70;1.30;;;;;;;8.20;76.57;97104.17;219547;1279;3109221;-72
2023/03/31 22:28:37;;;;;;;3.20;1.50;;;;;;;8.13;76.92;97113.42;221249;1279;23180;-73
2023/03/31 22:34:56;;;;;;;;;;;;;;;;;;;;;
2023/03/31 22:40:32;;;;;;;;;;;;;;;;;;;;;
2023/03/31 22:46:30;;;;;;;;;;;;;;;;;;;;;
2023/03/31 22:52:16;;;;;;;5.90;1.80;;;;;;;7.98;77.88;97100.59;222308;1279;24244;-73
2023/03/31 22:58:04;;;;;;;2.60;1.30;;;;;;;7.98;77.91;97091.68;221487;1279;22524;-73
2023/03/31 23:04:10;;;;;;;2.30;1.30;;;;;;;7.94;78.00;97099.43;222328;1279;23263;-72
2023/03/31 23:10:12;;;;;;;4.50;1.60;;;;;;;7.91;78.08;97100.38;221417;1279;22551;-74
2023/03/31 23:17:03;;;;;;;3.80;1.70;;;;;;;7.87;78.28;97089.76;222243;1279;22474;-73
2023/03/31 23:22:50;;;;;;;2.40;1.40;;;;;;;7.83;78.42;97076.45;221530;1268;22489;-73
2023/03/31 23:29:08;;;;;;;;;;;;;;;;;;;;;
2023/03/31 23:35:35;;;;;;;;;;;;;;;;;;;;;
2023/03/31 23:42:27;;;;;;;2.60;1.60;;;;;;;7.64;78.56;97063.98;221162;1279;22603;-74
2023/03/31 23:55:25;;;;;;;4.50;1.60;;;;;;;7.46;79.19;97060.16;222090;1279;25349;-73
